Time;durP1;ratioP1;P1;durP2;ratioP2;P2;SDS_P1;SDS_P2;PMS_P1;PMS_P2;Temp;Humidity;BMP_temperature;BMP_pressure;BME280_temperature;BME280_humidity;BME280_pressure;Samples;Min_cycle;Max_cycle;Signal;HPM_P1;HPM_P2
2023/08/27 00:01:15;;;;;;;7.15;3.75;;;21.60;99.90;;;;;;2583709;54;20963;31
2023/08/27 00:03:48;;;;;;;6.63;3.67;;;21.60;99.90;;;;;;2583810;54;20034;31
2023/08/27 00:06:23;;;;;;;4.57;3.23;;;21.60;99.90;;;;;;2589411;39;20233;31
2023/08/27 00:08:57;;;;;;;5.10;3.70;;;21.60;99.90;;;;;;2583665;54;20996;31
2023/08/27 00:11:30;;;;;;;4.40;3.35;;;21.60;99.90;;;;;;2583585;54;20866;31
2023/08/27 00:14:03;;;;;;;8.40;3.22;;;21.60;99.90;;;;;;2583959;54;20042;31
2023/08/27 00:16:35;;;;;;;6.25;3.33;;;21.60;99.90;;;;;;2585007;54;20842;31
2023/08/27 00:19:08;;;;;;;4.13;3.05;;;21.50;99.90;;;;;;2585951;54;20057;31
2023/08/27 00:21:43;;;;;;;5.75;3.05;;;21.50;99.90;;;;;;2585672;54;20026;31
2023/08/27 00:24:16;;;;;;;6.13;3.30;;;21.60;99.90;;;;;;2585692;54;20031;31
2023/08/27 00:26:49;;;;;;;4.33;3.17;;;21.60;99.90;;;;;;2604209;47;20875;31
2023/08/27 00:29:22;;;;;;;4.78;3.30;;;21.60;99.90;;;;;;2585941;54;20037;31
2023/08/27 00:31:55;;;;;;;5.35;3.42;;;21.60;99.90;;;;;;2585955;54;20022;31
2023/08/27 00:34:33;;;;;;;5.75;3.60;;;21.60;99.90;;;;;;2586389;54;20108;31
2023/08/27 00:37:09;;;;;;;5.35;3.70;;;21.50;99.90;;;;;;2586736;54;20856;31
2023/08/27 00:39:41;;;;;;;7.00;4.30;;;21.50;99.90;;;;;;2586635;54;21017;31
2023/08/27 00:42:15;;;;;;;5.60;3.65;;;21.50;99.90;;;;;;2604881;46;21232;31
2023/08/27 00:44:49;;;;;;;6.60;4.00;;;21.50;99.90;;;;;;2586681;54;20118;31
2023/08/27 00:47:21;;;;;;;6.20;3.70;;;21.50;99.90;;;;;;2586822;54;20173;31
2023/08/27 00:49:53;;;;;;;7.05;4.55;;;21.50;99.90;;;;;;2586719;54;20108;31
2023/08/27 00:52:29;;;;;;;5.05;3.70;;;21.50;99.90;;;;;;2586346;54;20975;31
2023/08/27 00:55:04;;;;;;;4.65;3.50;;;21.50;99.90;;;;;;2586480;54;20049;31
2023/08/27 00:57:36;;;;;;;6.35;4.13;;;21.50;99.90;;;;;;2605219;46;20050;31
2023/08/27 01:00:10;;;;;;;4.18;3.45;;;21.50;99.90;;;;;;2604864;46;20082;31
2023/08/27 01:02:48;;;;;;;7.50;4.38;;;21.50;99.90;;;;;;2605134;46;20029;31
2023/08/27 01:05:23;;;;;;;5.22;4.22;;;21.50;99.90;;;;;;2586779;54;20033;31
2023/08/27 01:08:02;;;;;;;5.57;4.35;;;21.50;99.90;;;;;;2586442;54;20802;31
2023/08/27 01:10:40;;;;;;;4.40;3.70;;;21.50;99.90;;;;;;2586546;54;19938;31
2023/08/27 01:13:17;;;;;;;7.50;4.10;;;21.50;99.90;;;;;;2586343;54;20062;31
2023/08/27 01:15:52;;;;;;;7.60;4.15;;;21.40;99.90;;;;;;2605453;46;20775;31
2023/08/27 01:18:25;;;;;;;6.25;4.53;;;21.40;99.90;;;;;;2604921;46;20876;31
2023/08/27 01:20:59;;;;;;;6.50;4.72;;;21.40;99.90;;;;;;2586536;54;20038;31
2023/08/27 01:23:35;;;;;;;7.50;5.40;;;21.50;99.90;;;;;;2586404;54;20053;31
2023/08/27 01:26:07;;;;;;;6.95;4.90;;;21.40;99.90;;;;;;2586567;54;20698;31
2023/08/27 01:28:43;;;;;;;7.17;4.90;;;21.40;99.90;;;;;;2604589;46;20899;31
2023/08/27 01:31:17;;;;;;;6.30;4.30;;;21.40;99.90;;;;;;2586534;54;20251;31
2023/08/27 01:33:51;;;;;;;5.75;4.35;;;21.50;99.90;;;;;;2605084;46;20916;31
2023/08/27 01:36:25;;;;;;;6.47;4.60;;;21.40;99.90;;;;;;2604518;46;20034;31
2023/08/27 01:39:03;;;;;;;6.55;5.10;;;21.50;99.90;;;;;;2604866;46;20256;31
2023/08/27 01:41:35;;;;;;;6.22;4.28;;;21.40;99.90;;;;;;2586459;54;20736;31
2023/08/27 01:44:08;;;;;;;6.60;4.68;;;21.50;99.90;;;;;;2586256;54;20030;31
2023/08/27 01:46:39;;;;;;;6.90;5.00;;;21.50;99.90;;;;;;2586513;54;21006;31
2023/08/27 01:49:12;;;;;;;8.60;5.10;;;21.40;99.90;;;;;;2586249;54;20969;31
2023/08/27 01:51:44;;;;;;;5.05;4.18;;;21.40;99.90;;;;;;2605124;46;20031;31
2023/08/27 01:54:20;;;;;;;6.22;4.40;;;21.30;99.90;;;;;;2586573;54;21007;31
2023/08/27 01:56:51;;;;;;;6.43;4.82;;;21.30;99.90;;;;;;2605134;46;20049;31
2023/08/27 01:59:23;;;;;;;8.50;5.47;;;21.30;99.90;;;;;;2586454;54;20757;31
2023/08/27 02:01:55;;;;;;;7.33;5.33;;;21.30;99.90;;;;;;2604898;46;20038;31
2023/08/27 02:04:30;;;;;;;7.90;5.47;;;21.20;99.90;;;;;;2586240;54;20027;31
2023/08/27 02:07:04;;;;;;;9.27;5.43;;;21.20;99.90;;;;;;2586105;54;20085;31
2023/08/27 02:09:40;;;;;;;9.32;5.07;;;21.10;99.90;;;;;;2586375;54;20022;31
2023/08/27 02:12:15;;;;;;;6.82;5.43;;;21.10;99.90;;;;;;2586284;54;20933;31
2023/08/27 02:14:47;;;;;;;7.82;5.20;;;21.10;99.90;;;;;;2586159;54;20049;31
2023/08/27 02:17:19;;;;;;;7.28;5.25;;;21.10;99.90;;;;;;2586283;54;20757;31
2023/08/27 02:19:51;;;;;;;9.45;5.78;;;21.10;99.90;;;;;;2586319;54;20026;31
2023/08/27 02:22:27;;;;;;;8.60;6.07;;;21.00;99.90;;;;;;2586228;54;20029;31
2023/08/27 02:25:04;;;;;;;8.10;6.25;;;21.10;99.90;;;;;;2586077;54;21021;31
2023/08/27 02:27:35;;;;;;;9.20;6.40;;;21.10;99.90;;;;;;2586339;54;20931;31
2023/08/27 02:30:10;;;;;;;9.00;5.80;;;21.00;99.90;;;;;;2586198;54;20054;31
2023/08/27 02:32:42;;;;;;;7.55;6.03;;;21.00;99.90;;;;;;2585339;54;20325;31
2023/08/27 02:35:15;;;;;;;7.10;5.38;;;21.00;99.90;;;;;;2586263;54;20026;31
2023/08/27 02:37:47;;;;;;;6.65;4.95;;;21.00;99.90;;;;;;2586058;54;20852;31
2023/08/27 02:40:23;;;;;;;5.45;4.35;;;20.90;99.90;;;;;;2605011;46;20955;31
2023/08/27 02:42:54;;;;;;;6.00;4.07;;;20.90;99.90;;;;;;2586216;54;20057;31
2023/08/27 02:45:27;;;;;;;5.90;4.55;;;20.80;99.90;;;;;;2604909;46;20032;31
2023/08/27 02:47:59;;;;;;;8.30;4.25;;;20.80;99.90;;;;;;2586344;54;20670;31
2023/08/27 02:50:32;;;;;;;5.72;4.07;;;20.70;99.90;;;;;;2586307;54;20782;31
2023/08/27 02:53:06;;;;;;;5.75;3.80;;;20.70;99.90;;;;;;2586168;54;20850;31
2023/08/27 02:55:41;;;;;;;4.77;3.67;;;20.70;99.90;;;;;;2604217;46;20030;31
2023/08/27 02:58:13;;;;;;;7.95;3.55;;;20.50;99.90;;;;;;2683894;39;21532;31
2023/08/27 03:00:45;;;;;;;5.63;3.45;;;20.50;99.90;;;;;;2604711;46;20026;31
2023/08/27 03:03:20;;;;;;;4.65;2.85;;;20.40;99.90;;;;;;2586229;54;20031;31
2023/08/27 03:05:52;;;;;;;8.07;3.40;;;20.40;99.90;;;;;;2585992;54;20886;31
2023/08/27 03:08:24;;;;;;;4.40;2.85;;;20.30;99.90;;;;;;2604512;46;20101;31
2023/08/27 03:11:00;;;;;;;4.95;3.15;;;20.20;99.90;;;;;;2604335;46;20074;31
2023/08/27 03:13:31;;;;;;;;;;;20.20;99.90;;;;;;2604944;46;20031;31
2023/08/27 03:16:03;;;;;;;4.97;3.13;;;20.10;99.90;;;;;;2585947;54;19934;31
2023/08/27 03:18:36;;;;;;;4.33;2.93;;;20.00;99.90;;;;;;2585813;54;20030;31
2023/08/27 03:21:08;;;;;;;13.77;3.20;;;20.00;99.90;;;;;;2586168;54;20762;31
2023/08/27 03:23:41;;;;;;;4.87;3.10;;;20.00;99.90;;;;;;2683740;39;21537;31
2023/08/27 03:26:17;;;;;;;3.55;2.92;;;19.90;99.90;;;;;;2586089;54;20245;31
2023/08/27 03:28:51;;;;;;;4.60;3.10;;;19.90;99.90;;;;;;2586094;54;19935;31
2023/08/27 03:31:24;;;;;;;4.70;3.60;;;19.80;99.90;;;;;;2585884;54;20107;31
2023/08/27 03:33:57;;;;;;;4.90;3.10;;;19.80;99.90;;;;;;2585924;54;20046;31
2023/08/27 03:36:28;;;;;;;5.80;3.20;;;19.80;99.90;;;;;;2604390;46;20045;31
2023/08/27 03:39:01;;;;;;;5.60;3.30;;;19.80;99.90;;;;;;2586093;54;20063;31
2023/08/27 03:41:37;;;;;;;4.13;2.93;;;19.80;99.90;;;;;;2585856;54;20239;31
2023/08/27 03:44:09;;;;;;;7.65;3.55;;;19.80;99.90;;;;;;2604519;46;20093;31
2023/08/27 03:46:42;;;;;;;6.00;3.55;;;19.80;99.90;;;;;;2585877;54;20976;31
2023/08/27 03:49:15;;;;;;;4.43;3.20;;;19.80;99.90;;;;;;2586034;54;20751;31
2023/08/27 03:51:48;;;;;;;6.20;3.63;;;19.80;99.90;;;;;;2585683;54;21238;31
2023/08/27 03:54:22;;;;;;;4.87;3.50;;;19.70;99.90;;;;;;2586175;54;20791;31
2023/08/27 03:56:57;;;;;;;7.45;3.65;;;19.70;99.90;;;;;;2585530;54;20113;31
2023/08/27 03:59:28;;;;;;;6.05;3.25;;;19.70;99.90;;;;;;2585965;54;20927;31
2023/08/27 04:02:00;;;;;;;5.83;3.60;;;19.70;99.90;;;;;;2604367;46;20029;31
2023/08/27 04:04:35;;;;;;;6.85;3.83;;;19.70;99.90;;;;;;2586093;54;20917;31
2023/08/27 04:07:09;;;;;;;3.75;3.10;;;19.70;99.90;;;;;;2585830;54;21039;31
2023/08/27 04:09:43;;;;;;;6.75;4.18;;;19.70;99.90;;;;;;2585379;54;20099;31
2023/08/27 04:12:19;;;;;;;7.05;3.85;;;19.70;99.90;;;;;;2683366;39;20424;31
2023/08/27 04:14:50;;;;;;;;;;;19.70;99.90;;;;;;2585993;54;20038;31
2023/08/27 04:17:22;;;;;;;7.90;4.20;;;19.70;99.90;;;;;;2586076;54;19939;31
2023/08/27 04:19:55;;;;;;;7.95;4.20;;;19.70;99.90;;;;;;2683427;39;20412;31
2023/08/27 04:22:27;;;;;;;6.47;4.30;;;19.70;99.90;;;;;;2585796;54;20046;31
2023/08/27 04:24:59;;;;;;;6.50;4.60;;;19.70;99.90;;;;;;2585730;54;20033;31
2023/08/27 04:27:34;;;;;;;6.45;4.97;;;19.70;99.90;;;;;;2604150;47;20058;31
2023/08/27 04:30:09;;;;;;;8.60;4.97;;;19.70;99.90;;;;;;2585625;54;20065;31
2023/08/27 04:32:43;;;;;;;;;;;19.80;99.90;;;;;;2585807;54;20909;31
2023/08/27 04:35:14;;;;;;;9.68;5.00;;;19.80;99.90;;;;;;2603824;47;19934;31
2023/08/27 04:37:47;;;;;;;8.77;4.50;;;19.80;99.90;;;;;;2585972;54;20029;31
2023/08/27 04:40:22;;;;;;;8.18;4.63;;;19.80;99.90;;;;;;2604021;47;20759;31
2023/08/27 04:42:57;;;;;;;7.07;4.97;;;19.80;99.90;;;;;;2585683;54;20822;31
2023/08/27 04:45:29;;;;;;;8.37;5.00;;;19.90;99.90;;;;;;2585857;54;20947;31
2023/08/27 04:48:03;;;;;;;7.85;5.07;;;19.90;99.90;;;;;;2585551;54;20033;31
2023/08/27 04:50:37;;;;;;;7.00;5.00;;;19.90;99.90;;;;;;2585822;54;20972;31
2023/08/27 04:53:10;;;;;;;7.57;5.53;;;20.00;99.90;;;;;;2585883;54;20023;31
2023/08/27 04:55:43;;;;;;;7.07;5.28;;;20.00;99.90;;;;;;2585856;54;20882;31
2023/08/27 04:58:19;;;;;;;7.27;4.70;;;20.00;99.90;;;;;;2585745;54;21277;31
2023/08/27 05:00:55;;;;;;;5.80;4.80;;;20.00;99.90;;;;;;2585667;54;20972;31
2023/08/27 05:03:29;;;;;;;6.32;4.88;;;20.00;99.90;;;;;;2585597;54;21226;31
2023/08/27 05:06:03;;;;;;;7.68;4.65;;;20.00;99.90;;;;;;2585994;54;20886;31
2023/08/27 05:08:37;;;;;;;6.72;5.03;;;20.00;99.90;;;;;;2585610;54;20038;31
2023/08/27 05:11:10;;;;;;;7.55;5.10;;;20.00;99.90;;;;;;2585717;54;20026;31
2023/08/27 05:13:45;;;;;;;7.13;5.30;;;20.10;99.90;;;;;;2604000;47;20085;31
2023/08/27 05:16:19;;;;;;;6.57;5.10;;;20.10;99.90;;;;;;2585714;54;21217;31
2023/08/27 05:18:51;;;;;;;6.60;4.45;;;20.10;99.90;;;;;;2604286;47;20034;31
2023/08/27 05:21:23;;;;;;;7.20;5.03;;;20.10;99.90;;;;;;2586287;54;20031;31
2023/08/27 05:23:55;;;;;;;6.40;4.90;;;20.10;99.90;;;;;;2586458;54;20042;31
2023/08/27 05:26:27;;;;;;;7.50;5.00;;;20.10;99.90;;;;;;2586414;54;20037;31
2023/08/27 05:29:02;;;;;;;9.90;4.95;;;20.10;99.90;;;;;;2586370;54;20852;31
2023/08/27 05:31:33;;;;;;;6.50;5.15;;;20.20;99.90;;;;;;2586528;54;20923;31
2023/08/27 05:34:08;;;;;;;11.15;5.00;;;20.20;99.90;;;;;;2586592;54;20029;31
2023/08/27 05:36:40;;;;;;;7.68;4.90;;;20.20;99.90;;;;;;2586480;54;20945;31
2023/08/27 05:39:14;;;;;;;6.55;5.40;;;20.30;99.90;;;;;;2586259;54;20022;31
2023/08/27 05:41:47;;;;;;;6.78;5.22;;;20.30;99.90;;;;;;2604690;46;20178;31
2023/08/27 05:44:23;;;;;;;9.70;5.50;;;20.40;99.90;;;;;;2605448;46;20874;31
2023/08/27 05:46:56;;;;;;;7.60;5.90;;;20.40;99.90;;;;;;2586551;54;20033;31
2023/08/27 05:49:29;;;;;;;7.32;6.00;;;20.40;99.90;;;;;;2586488;54;20741;31
2023/08/27 05:52:01;;;;;;;9.55;5.85;;;20.40;99.90;;;;;;2586525;54;20755;31
2023/08/27 05:54:34;;;;;;;7.80;6.05;;;20.50;99.90;;;;;;2586444;54;20089;31
2023/08/27 05:57:07;;;;;;;10.77;6.00;;;20.50;99.90;;;;;;2586353;54;20050;31
2023/08/27 05:59:44;;;;;;;7.70;6.10;;;20.60;99.90;;;;;;2586263;54;20033;31
2023/08/27 06:02:18;;;;;;;9.32;5.85;;;20.60;99.90;;;;;;2586199;54;20057;31
2023/08/27 06:04:51;;;;;;;9.25;6.65;;;20.60;99.90;;;;;;2586305;54;20872;31
2023/08/27 06:07:23;;;;;;;8.65;6.50;;;20.70;99.90;;;;;;2586026;54;20034;31
2023/08/27 06:09:56;;;;;;;9.53;6.30;;;20.70;99.90;;;;;;2586533;54;20089;31
2023/08/27 06:12:28;;;;;;;9.90;6.75;;;20.70;99.90;;;;;;2586455;54;20919;31
2023/08/27 06:15:04;;;;;;;8.23;6.05;;;20.80;99.90;;;;;;2586198;54;20057;31
2023/08/27 06:17:38;;;;;;;10.55;6.75;;;20.80;99.90;;;;;;2604763;46;20864;31
2023/08/27 06:20:12;;;;;;;9.25;6.55;;;20.80;99.90;;;;;;2604668;46;20076;31
2023/08/27 06:22:44;;;;;;;9.85;5.97;;;20.80;99.90;;;;;;2604889;46;20052;31
2023/08/27 06:25:15;;;;;;;11.75;6.75;;;20.90;99.90;;;;;;2586198;54;20903;31
2023/08/27 06:27:47;;;;;;;11.93;6.55;;;20.90;99.90;;;;;;2586310;54;20841;31
2023/08/27 06:30:23;;;;;;;9.25;7.65;;;21.00;99.90;;;;;;2586514;54;20858;31
2023/08/27 06:32:57;;;;;;;11.35;6.75;;;21.10;99.90;;;;;;2604740;46;20113;31
2023/08/27 06:35:30;;;;;;;8.18;5.80;;;21.10;99.90;;;;;;2586147;54;20874;31
2023/08/27 06:38:06;;;;;;;12.30;7.13;;;21.20;99.90;;;;;;2586159;54;20758;31
2023/08/27 06:40:38;;;;;;;8.18;5.55;;;21.20;99.90;;;;;;2586236;54;20862;31
2023/08/27 06:43:11;;;;;;;7.82;6.15;;;21.20;99.90;;;;;;2604455;46;20880;31
2023/08/27 06:45:51;;;;;;;6.85;5.65;;;21.30;99.90;;;;;;2604477;46;20908;31
2023/08/27 06:48:24;;;;;;;9.15;5.90;;;21.30;99.90;;;;;;2586122;54;20026;31
2023/08/27 06:51:00;;;;;;;8.73;6.10;;;21.30;99.90;;;;;;2604501;46;20033;31
2023/08/27 06:53:33;;;;;;;9.87;5.40;;;21.30;99.90;;;;;;2586107;54;20037;31
2023/08/27 06:56:07;;;;;;;6.90;5.53;;;21.30;99.90;;;;;;2586539;54;20890;31
2023/08/27 06:58:42;;;;;;;6.05;5.40;;;21.40;99.90;;;;;;2586318;54;21095;31
2023/08/27 07:01:17;;;;;;;9.57;5.85;;;21.50;99.90;;;;;;2604693;46;20048;31
2023/08/27 07:03:50;;;;;;;7.35;5.40;;;21.50;99.90;;;;;;2586072;54;20037;31
2023/08/27 07:06:23;;;;;;;9.30;5.50;;;21.50;99.90;;;;;;2604301;46;20042;31
2023/08/27 07:08:57;;;;;;;9.40;5.15;;;21.50;99.90;;;;;;2586228;54;20061;31
2023/08/27 07:11:30;;;;;;;9.77;6.45;;;21.60;99.90;;;;;;2604512;46;20033;31
2023/08/27 07:14:02;;;;;;;8.03;5.20;;;21.60;99.90;;;;;;2586125;54;20033;31
2023/08/27 07:16:37;;;;;;;7.25;5.45;;;21.70;99.90;;;;;;2586201;54;20989;31
2023/08/27 07:19:10;;;;;;;7.90;5.90;;;22.00;99.90;;;;;;2604791;46;20958;31
2023/08/27 07:21:43;;;;;;;7.53;5.10;;;22.20;99.90;;;;;;2585758;54;20911;31
2023/08/27 07:24:15;;;;;;;6.88;5.53;;;22.60;99.90;;;;;;2586016;54;20042;31
2023/08/27 07:26:49;;;;;;;6.20;5.00;;;23.00;99.90;;;;;;2585892;54;20154;31
2023/08/27 07:29:24;;;;;;;7.90;4.10;;;23.30;99.90;;;;;;2585955;54;20105;31
2023/08/27 07:31:59;;;;;;;5.80;4.15;;;23.50;99.90;;;;;;2586076;54;20125;31
2023/08/27 07:34:31;;;;;;;6.18;3.63;;;23.60;99.90;;;;;;2586045;54;20786;31
2023/08/27 07:37:08;;;;;;;3.92;3.03;;;23.60;99.90;;;;;;2586032;54;20819;31
2023/08/27 07:39:41;;;;;;;4.50;3.20;;;23.60;99.90;;;;;;2586136;54;20785;31
2023/08/27 07:42:14;;;;;;;4.30;3.53;;;23.60;99.90;;;;;;2585916;54;20049;31
2023/08/27 07:44:47;;;;;;;3.35;3.00;;;23.70;99.90;;;;;;2586007;54;20842;31
2023/08/27 07:47:23;;;;;;;5.40;3.25;;;23.80;99.90;;;;;;2585897;54;20965;31
2023/08/27 07:49:55;;;;;;;2.95;2.55;;;24.00;99.90;;;;;;2586059;54;20854;31
2023/08/27 07:52:27;;;;;;;4.88;3.17;;;24.00;99.90;;;;;;2604250;46;20164;31
2023/08/27 07:55:00;;;;;;;5.10;3.20;;;24.00;99.90;;;;;;2586190;54;20026;31
2023/08/27 07:57:34;;;;;;;3.35;2.85;;;24.00;99.90;;;;;;2585972;54;20946;31
2023/08/27 08:00:09;;;;;;;4.10;3.00;;;24.10;99.90;;;;;;2585860;54;20056;31
2023/08/27 08:02:54;;;;;;;4.60;2.72;;;24.10;99.90;;;;;;2585814;54;20022;31
2023/08/27 08:05:25;;;;;;;;;;;24.00;99.90;;;;;;2586287;54;20998;31
2023/08/27 08:08:00;;;;;;;3.95;2.50;;;23.90;99.90;;;;;;2604583;46;19941;31
2023/08/27 08:10:35;;;;;;;3.63;2.80;;;23.80;99.90;;;;;;2586209;54;20030;31
2023/08/27 08:13:13;;;;;;;4.85;3.22;;;23.80;99.90;;;;;;2584986;54;20938;31
2023/08/27 08:15:45;;;;;;;4.77;4.07;;;23.80;99.90;;;;;;2604372;46;20785;31
2023/08/27 08:18:22;;;;;;;4.70;2.95;;;23.80;99.90;;;;;;2603556;47;20054;31
2023/08/27 08:20:56;;;;;;;4.00;3.30;;;23.80;99.90;;;;;;2588406;47;20058;31
2023/08/27 08:23:28;;;;;;;4.10;2.72;;;23.80;99.90;;;;;;2585794;54;20868;31
2023/08/27 08:26:02;;;;;;;5.10;2.70;;;23.80;99.90;;;;;;2585936;54;20036;31
2023/08/27 08:28:35;;;;;;;4.43;3.00;;;23.80;99.90;;;;;;2585818;54;20142;31
2023/08/27 08:31:06;;;;;;;4.27;3.07;;;23.90;99.90;;;;;;2604241;47;20033;31
2023/08/27 08:33:43;;;;;;;3.80;2.95;;;23.90;99.90;;;;;;2585954;54;21196;31
2023/08/27 08:36:16;;;;;;;7.00;3.40;;;23.90;99.90;;;;;;2604520;47;20056;31
2023/08/27 08:38:48;;;;;;;5.85;2.95;;;23.90;99.90;;;;;;2604485;47;20953;31
2023/08/27 08:41:22;;;;;;;6.05;3.08;;;24.00;99.90;;;;;;2585684;54;20193;31
2023/08/27 08:43:56;;;;;;;4.30;2.67;;;23.90;99.90;;;;;;2585765;54;20027;31
2023/08/27 08:46:31;;;;;;;3.47;2.80;;;23.90;99.90;;;;;;2585738;54;20100;31
2023/08/27 08:49:05;;;;;;;3.40;2.85;;;23.80;99.90;;;;;;2585647;54;20035;31
2023/08/27 08:51:39;;;;;;;4.07;3.27;;;23.80;99.90;;;;;;2585681;54;20934;31
2023/08/27 08:54:12;;;;;;;5.70;4.07;;;23.70;99.90;;;;;;2585808;54;20784;31
2023/08/27 08:56:48;;;;;;;5.90;3.92;;;23.60;99.90;;;;;;2586648;54;20026;31
2023/08/27 08:59:22;;;;;;;4.18;3.55;;;23.60;99.90;;;;;;2586457;54;20034;31
2023/08/27 09:01:53;;;;;;;6.55;3.90;;;23.50;99.90;;;;;;2586627;54;20050;31
2023/08/27 09:04:28;;;;;;;4.15;2.97;;;23.40;99.90;;;;;;2586469;54;20057;31
2023/08/27 09:07:00;;;;;;;5.17;4.03;;;23.40;99.90;;;;;;2586645;54;20850;31
2023/08/27 09:09:34;;;;;;;4.68;3.53;;;23.30;99.90;;;;;;2586581;54;20884;31
2023/08/27 09:12:06;;;;;;;5.03;4.10;;;23.40;99.90;;;;;;2586342;54;20057;31
2023/08/27 09:14:39;;;;;;;5.70;4.10;;;23.30;99.90;;;;;;2586543;54;20843;31
2023/08/27 09:17:13;;;;;;;5.50;3.97;;;23.20;99.90;;;;;;2586318;54;20037;31
2023/08/27 09:19:50;;;;;;;4.55;2.83;;;23.20;99.90;;;;;;2586294;54;20089;31
2023/08/27 09:22:23;;;;;;;5.10;3.80;;;23.20;99.90;;;;;;2586353;54;20037;31
2023/08/27 09:24:56;;;;;;;4.97;3.60;;;23.30;99.90;;;;;;2604611;46;20030;31
2023/08/27 09:27:30;;;;;;;4.75;3.90;;;23.40;99.90;;;;;;2586568;54;20038;31
2023/08/27 09:30:02;;;;;;;5.35;3.80;;;23.40;99.90;;;;;;2586356;54;20033;31
2023/08/27 09:32:33;;;;;;;4.55;3.85;;;23.40;99.90;;;;;;2586382;54;20853;31
2023/08/27 09:35:09;;;;;;;8.27;3.60;;;23.40;99.90;;;;;;2586483;54;20762;31
2023/08/27 09:37:41;;;;;;;7.50;3.75;;;23.40;99.90;;;;;;2604901;46;20030;31
2023/08/27 09:40:16;;;;;;;4.50;3.25;;;23.30;99.90;;;;;;2586439;54;21587;31
2023/08/27 09:42:49;;;;;;;3.97;3.47;;;23.30;99.90;;;;;;2604911;46;20147;31
2023/08/27 09:45:21;;;;;;;6.13;3.20;;;23.20;99.90;;;;;;2586113;54;20230;31
2023/08/27 09:47:55;;;;;;;5.93;2.78;;;23.20;99.90;;;;;;2604754;46;20373;31
2023/08/27 09:50:30;;;;;;;3.85;3.22;;;23.10;99.90;;;;;;2585887;54;20038;31
2023/08/27 09:53:13;;;;;;;4.85;2.80;;;23.00;99.90;;;;;;2586292;54;20931;31
2023/08/27 09:55:45;;;;;;;6.05;3.05;;;22.80;99.90;;;;;;2586297;54;21609;31
2023/08/27 09:58:19;;;;;;;4.82;3.35;;;22.80;99.90;;;;;;2586532;54;20060;31
2023/08/27 10:00:53;;;;;;;3.70;2.95;;;22.60;99.90;;;;;;2586108;54;21618;31
2023/08/27 10:03:26;;;;;;;3.65;2.95;;;22.60;99.90;;;;;;2604194;46;20944;31
2023/08/27 10:06:03;;;;;;;6.10;3.67;;;22.50;99.90;;;;;;2604513;46;20919;31
2023/08/27 10:08:36;;;;;;;7.70;3.30;;;22.40;99.90;;;;;;2586524;54;20937;31
2023/08/27 10:11:09;;;;;;;5.03;3.70;;;22.30;99.90;;;;;;2586216;54;20242;31
2023/08/27 10:13:42;;;;;;;5.50;4.10;;;22.30;99.90;;;;;;2586255;54;20037;31
2023/08/27 10:16:15;;;;;;;6.85;4.00;;;22.20;99.90;;;;;;2586195;54;20239;31
2023/08/27 10:18:49;;;;;;;5.93;3.60;;;22.20;99.90;;;;;;2586208;54;20062;31
2023/08/27 10:21:24;;;;;;;4.85;3.60;;;22.20;99.90;;;;;;2586093;54;20898;31
2023/08/27 10:23:56;;;;;;;5.68;3.42;;;22.10;99.90;;;;;;2585910;54;20026;31
2023/08/27 10:26:30;;;;;;;4.93;3.05;;;22.10;99.90;;;;;;2702256;39;21556;31
2023/08/27 10:29:03;;;;;;;4.10;3.13;;;22.00;99.90;;;;;;2586097;54;20945;31
2023/08/27 10:31:35;;;;;;;5.68;3.55;;;22.00;99.90;;;;;;2586275;54;20096;31
2023/08/27 10:34:11;;;;;;;5.57;3.23;;;21.90;99.90;;;;;;2586229;54;20033;31
2023/08/27 10:36:47;;;;;;;6.45;3.38;;;21.90;99.90;;;;;;2586424;54;20996;31
2023/08/27 10:39:20;;;;;;;;;;;21.90;99.90;;;;;;2586259;54;20023;31
2023/08/27 10:41:55;;;;;;;4.85;3.55;;;21.90;99.90;;;;;;2586440;54;20412;31
2023/08/27 10:44:30;;;;;;;4.45;3.50;;;21.80;99.90;;;;;;2586409;54;20031;31
2023/08/27 10:47:13;;;;;;;4.60;3.70;;;21.80;99.90;;;;;;2586275;54;20956;31
2023/08/27 10:49:48;;;;;;;6.47;4.67;;;21.80;99.90;;;;;;2586124;54;20026;31
2023/08/27 10:52:23;;;;;;;6.40;4.70;;;21.80;99.90;;;;;;2702407;39;20624;31
2023/08/27 10:54:56;;;;;;;;;;;21.80;99.90;;;;;;2604807;46;20061;31
2023/08/27 10:57:27;;;;;;;7.35;4.50;;;21.80;99.90;;;;;;2702522;39;20336;31
2023/08/27 11:00:10;;;;;;;7.25;3.75;;;21.80;99.90;;;;;;2586288;54;20026;31
2023/08/27 11:02:58;;;;;;;6.68;4.28;;;21.70;99.90;;;;;;2586050;54;20017;31
2023/08/27 11:05:33;;;;;;;4.75;3.65;;;21.70;99.90;;;;;;2603891;46;20935;31
2023/08/27 11:08:13;;;;;;;6.80;4.60;;;21.70;99.90;;;;;;2586063;54;20891;31
2023/08/27 11:10:45;;;;;;;7.97;3.90;;;21.70;99.90;;;;;;2586048;54;20053;31
2023/08/27 11:13:37;;;;;;;8.57;4.43;;;21.80;99.90;;;;;;2586107;54;20026;31
2023/08/27 11:16:13;;;;;;;5.75;4.03;;;21.80;99.90;;;;;;2586026;54;20104;31
2023/08/27 11:18:50;;;;;;;6.80;4.10;;;21.80;99.90;;;;;;2585978;54;19934;31
2023/08/27 11:21:23;;;;;;;6.73;3.57;;;21.80;99.90;;;;;;2586181;54;21199;31
2023/08/27 11:24:24;;;;;;;4.55;4.00;;;21.80;99.90;;;;;;2586244;54;20555;31
2023/08/27 11:26:58;;;;;;;7.78;4.13;;;21.90;99.90;;;;;;2604284;46;21002;31
2023/08/27 11:29:32;;;;;;;7.15;3.90;;;21.90;99.90;;;;;;2586345;54;20022;31
2023/08/27 11:32:05;;;;;;;6.10;4.05;;;21.90;99.90;;;;;;2585967;54;20160;31
2023/08/27 11:34:38;;;;;;;6.03;4.10;;;22.00;99.90;;;;;;2586110;54;20882;31
2023/08/27 11:37:10;;;;;;;5.00;3.95;;;22.00;99.90;;;;;;2586152;54;20740;31
2023/08/27 11:39:44;;;;;;;6.35;3.80;;;22.10;99.90;;;;;;2585898;54;20089;31
2023/08/27 11:42:19;;;;;;;5.90;4.00;;;22.20;99.90;;;;;;2586018;54;21243;31
2023/08/27 11:44:53;;;;;;;4.20;3.25;;;22.20;99.90;;;;;;2683732;39;20451;31
2023/08/27 11:47:26;;;;;;;6.05;3.70;;;22.30;99.90;;;;;;2586183;54;20584;31
2023/08/27 11:49:59;;;;;;;5.78;3.92;;;22.40;99.90;;;;;;2585974;54;20882;31
2023/08/27 11:52:31;;;;;;;4.75;3.60;;;22.40;99.90;;;;;;2585804;54;20761;31
2023/08/27 11:55:09;;;;;;;5.85;4.20;;;22.40;99.90;;;;;;2604590;46;20954;31
2023/08/27 11:57:43;;;;;;;5.27;3.50;;;22.50;99.90;;;;;;2604374;46;20030;31
2023/08/27 12:00:17;;;;;;;6.40;3.55;;;22.50;99.90;;;;;;2604667;46;20996;31
2023/08/27 12:02:49;;;;;;;5.95;3.85;;;22.50;99.90;;;;;;2604336;46;20023;31
2023/08/27 12:05:22;;;;;;;4.57;3.65;;;22.60;99.90;;;;;;2604346;46;20847;31
2023/08/27 12:07:55;;;;;;;4.20;2.95;;;22.70;99.90;;;;;;2604298;46;20030;31
2023/08/27 12:10:32;;;;;;;6.40;3.80;;;22.70;99.90;;;;;;2585862;54;20947;31
2023/08/27 12:13:05;;;;;;;4.15;3.30;;;22.80;99.90;;;;;;2604071;46;20243;31
2023/08/27 12:15:38;;;;;;;6.05;3.75;;;22.80;99.90;;;;;;2585670;54;20054;31
2023/08/27 12:18:11;;;;;;;3.92;3.15;;;22.90;99.90;;;;;;2585446;54;20033;31
2023/08/27 12:20:44;;;;;;;5.93;3.08;;;22.90;99.90;;;;;;2585954;54;20034;31
2023/08/27 12:23:16;;;;;;;4.18;3.17;;;22.90;99.90;;;;;;2586068;54;20052;31
2023/08/27 12:25:53;;;;;;;4.75;3.30;;;22.90;99.90;;;;;;2585604;54;20026;31
2023/08/27 12:28:25;;;;;;;6.47;3.75;;;22.90;99.90;;;;;;2586019;54;20869;31
2023/08/27 12:30:58;;;;;;;5.13;3.50;;;22.90;99.90;;;;;;2586723;54;20789;31
2023/08/27 12:33:40;;;;;;;4.72;3.28;;;22.80;99.90;;;;;;2586509;54;20871;31
2023/08/27 12:36:12;;;;;;;5.00;3.53;;;22.80;99.90;;;;;;2586611;54;20029;31
2023/08/27 12:38:46;;;;;;;5.18;3.45;;;22.80;99.90;;;;;;2586588;54;20030;31
2023/08/27 12:41:21;;;;;;;4.30;3.47;;;22.80;99.90;;;;;;2586522;54;20022;31
2023/08/27 12:43:55;;;;;;;;;;;22.70;99.90;;;;;;2605359;46;20042;31
2023/08/27 12:46:30;;;;;;;3.65;3.10;;;22.70;99.90;;;;;;2586790;54;19961;31
2023/08/27 12:49:02;;;;;;;4.73;4.23;;;22.70;99.90;;;;;;2605118;46;20112;31
2023/08/27 12:51:37;;;;;;;4.15;3.20;;;22.70;99.90;;;;;;2585880;54;20046;31
2023/08/27 12:54:10;;;;;;;3.60;2.70;;;22.70;99.90;;;;;;2586526;54;20862;31
2023/08/27 12:56:46;;;;;;;5.40;3.80;;;22.60;99.90;;;;;;2604989;46;20030;31
2023/08/27 12:59:21;;;;;;;4.63;3.57;;;22.60;99.90;;;;;;2586617;54;20245;31
2023/08/27 13:01:58;;;;;;;5.32;3.15;;;22.70;99.90;;;;;;2586287;54;20293;31
2023/08/27 13:04:33;;;;;;;7.53;3.70;;;22.70;99.90;;;;;;2586437;54;20030;31
2023/08/27 13:07:06;;;;;;;3.80;2.90;;;22.60;99.90;;;;;;2604793;46;20022;31
2023/08/27 13:09:38;;;;;;;6.60;3.30;;;22.60;99.90;;;;;;2586488;54;20026;31
2023/08/27 13:12:14;;;;;;;4.72;3.22;;;22.60;99.90;;;;;;2604946;46;20030;31
2023/08/27 13:14:46;;;;;;;4.67;3.47;;;22.50;99.90;;;;;;2586432;54;20085;31
2023/08/27 13:17:18;;;;;;;4.47;3.53;;;22.50;99.90;;;;;;2586452;54;20028;31
2023/08/27 13:19:51;;;;;;;6.90;3.40;;;22.50;99.90;;;;;;2586404;54;20022;31
2023/08/27 13:22:24;;;;;;;5.43;4.10;;;22.50;99.90;;;;;;2586530;54;21003;31
2023/08/27 13:24:56;;;;;;;8.77;4.33;;;22.40;99.90;;;;;;2586539;54;20763;31
2023/08/27 13:27:30;;;;;;;5.22;4.05;;;22.40;99.90;;;;;;2586584;54;20867;31
2023/08/27 13:30:02;;;;;;;7.35;4.72;;;22.40;99.90;;;;;;2586411;54;20026;31
2023/08/27 13:32:36;;;;;;;6.90;3.97;;;22.40;99.90;;;;;;2586417;54;20052;31